sensor_id;sensor_type;location;lat;lon;timestamp;temperature;humidity
770;DHT22;368;48.698;9.116;2023-01-26T00:02:21;0.60;99.90
770;DHT22;368;48.698;9.116;2023-01-26T00:04:48;0.40;99.90
770;DHT22;368;48.698;9.116;2023-01-26T00:07:14;0.50;99.90
770;DHT22;368;48.698;9.116;2023-01-26T00:09:41;0.60;99.90
770;DHT22;368;48.698;9.116;2023-01-26T00:12:08;0.80;99.90
770;DHT22;368;48.698;9.116;2023-01-26T00:14:34;0.60;99.90
770;DHT22;368;48.698;9.116;2023-01-26T00:17:16;0.70;99.90
770;DHT22;368;48.698;9.116;2023-01-26T00:19:52;1.00;99.90
770;DHT22;368;48.698;9.116;2023-01-26T00:22:19;0.60;99.90
770;DHT22;368;48.698;9.116;2023-01-26T00:24:46;0.40;99.90
770;DHT22;368;48.698;9.116;2023-01-26T00:27:13;0.80;99.90
770;DHT22;368;48.698;9.116;2023-01-26T00:29:40;0.70;99.90
770;DHT22;368;48.698;9.116;2023-01-26T00:32:07;0.40;99.90
770;DHT22;368;48.698;9.116;2023-01-26T00:34:33;0.40;99.90
770;DHT22;368;48.698;9.116;2023-01-26T00:37:02;0.80;99.90
770;DHT22;368;48.698;9.116;2023-01-26T00:39:28;0.60;99.90
770;DHT22;368;48.698;9.116;2023-01-26T00:41:55;0.60;99.90
770;DHT22;368;48.698;9.116;2023-01-26T00:44:39;0.60;99.90
770;DHT22;368;48.698;9.116;2023-01-26T00:47:07;0.70;99.90
770;DHT22;368;48.698;9.116;2023-01-26T00:49:34;0.30;99.90
770;DHT22;368;48.698;9.116;2023-01-26T00:52:03;0.60;99.90
770;DHT22;368;48.698;9.116;2023-01-26T00:54:30;0.50;99.90
770;DHT22;368;48.698;9.116;2023-01-26T00:56:57;0.70;99.90
770;DHT22;368;48.698;9.116;2023-01-26T00:59:23;0.50;99.90
770;DHT22;368;48.698;9.116;2023-01-26T01:01:51;0.20;99.90
770;DHT22;368;48.698;9.116;2023-01-26T01:04:18;0.60;99.90
770;DHT22;368;48.698;9.116;2023-01-26T01:06:45;0.40;99.90
770;DHT22;368;48.698;9.116;2023-01-26T01:09:13;0.20;99.90
770;DHT22;368;48.698;9.116;2023-01-26T01:11:40;0.30;99.90
770;DHT22;368;48.698;9.116;2023-01-26T01:14:08;0.10;99.90
770;DHT22;368;48.698;9.116;2023-01-26T01:16:35;0.20;99.90
770;DHT22;368;48.698;9.116;2023-01-26T01:19:02;0.60;99.90
770;DHT22;368;48.698;9.116;2023-01-26T01:21:29;0.50;99.90
770;DHT22;368;48.698;9.116;2023-01-26T01:23:56;0.20;99.90
770;DHT22;368;48.698;9.116;2023-01-26T01:26:24;0.40;99.90
770;DHT22;368;48.698;9.116;2023-01-26T01:28:53;0.40;99.90
770;DHT22;368;48.698;9.116;2023-01-26T01:31:21;0.60;99.90
770;DHT22;368;48.698;9.116;2023-01-26T01:33:47;0.40;99.90
770;DHT22;368;48.698;9.116;2023-01-26T01:36:15;0.80;99.90
770;DHT22;368;48.698;9.116;2023-01-26T01:38:44;0.60;99.90
770;DHT22;368;48.698;9.116;2023-01-26T01:41:11;0.50;99.90
770;DHT22;368;48.698;9.116;2023-01-26T01:43:40;0.40;99.90
770;DHT22;368;48.698;9.116;2023-01-26T01:46:12;0.40;99.90
770;DHT22;368;48.698;9.116;2023-01-26T01:48:46;0.60;99.90
770;DHT22;368;48.698;9.116;2023-01-26T01:51:18;0.50;99.90
770;DHT22;368;48.698;9.116;2023-01-26T01:53:47;0.80;99.90
770;DHT22;368;48.698;9.116;2023-01-26T01:56:18;0.50;99.90
770;DHT22;368;48.698;9.116;2023-01-26T01:58:50;0.70;99.90
770;DHT22;368;48.698;9.116;2023-01-26T02:01:18;0.50;99.90
770;DHT22;368;48.698;9.116;2023-01-26T02:03:46;0.40;99.90
770;DHT22;368;48.698;9.116;2023-01-26T02:06:21;0.30;99.90
770;DHT22;368;48.698;9.116;2023-01-26T02:08:50;0.50;99.90
770;DHT22;368;48.698;9.116;2023-01-26T02:11:20;0.40;99.90
770;DHT22;368;48.698;9.116;2023-01-26T02:13:51;0.40;99.90
770;DHT22;368;48.698;9.116;2023-01-26T02:16:18;0.40;99.90
770;DHT22;368;48.698;9.116;2023-01-26T02:18:46;0.80;99.90
770;DHT22;368;48.698;9.116;2023-01-26T02:21:15;0.50;99.90
770;DHT22;368;48.698;9.116;2023-01-26T02:23:54;0.40;99.90
770;DHT22;368;48.698;9.116;2023-01-26T02:26:26;0.60;99.90
770;DHT22;368;48.698;9.116;2023-01-26T02:28:53;0.50;99.90
770;DHT22;368;48.698;9.116;2023-01-26T02:31:22;0.60;99.90
770;DHT22;368;48.698;9.116;2023-01-26T02:33:49;0.60;99.90
770;DHT22;368;48.698;9.116;2023-01-26T02:36:19;0.80;99.90
770;DHT22;368;48.698;9.116;2023-01-26T02:38:52;0.70;99.90
770;DHT22;368;48.698;9.116;2023-01-26T02:41:21;0.70;99.90
770;DHT22;368;48.698;9.116;2023-01-26T02:44:09;0.50;99.90
770;DHT22;368;48.698;9.116;2023-01-26T02:46:37;0.80;99.90
770;DHT22;368;48.698;9.116;2023-01-26T02:49:04;0.60;99.90
770;DHT22;368;48.698;9.116;2023-01-26T02:51:48;0.60;99.90
770;DHT22;368;48.698;9.116;2023-01-26T02:54:14;0.80;99.90
770;DHT22;368;48.698;9.116;2023-01-26T02:56:55;0.40;99.90
770;DHT22;368;48.698;9.116;2023-01-26T02:59:23;0.30;99.90
770;DHT22;368;48.698;9.116;2023-01-26T03:01:51;0.60;99.90
770;DHT22;368;48.698;9.116;2023-01-26T03:04:18;0.70;99.90
770;DHT22;368;48.698;9.116;2023-01-26T03:06:45;0.60;99.90
770;DHT22;368;48.698;9.116;2023-01-26T03:09:12;0.70;99.90
770;DHT22;368;48.698;9.116;2023-01-26T03:11:39;0.80;99.90
770;DHT22;368;48.698;9.116;2023-01-26T03:14:07;0.70;99.90
770;DHT22;368;48.698;9.116;2023-01-26T03:16:35;0.70;99.90
770;DHT22;368;48.698;9.116;2023-01-26T03:19:02;0.60;99.90
770;DHT22;368;48.698;9.116;2023-01-26T03:21:46;0.60;99.90
770;DHT22;368;48.698;9.116;2023-01-26T03:24:30;0.60;99.90
770;DHT22;368;48.698;9.116;2023-01-26T03:27:14;0.70;99.90
770;DHT22;368;48.698;9.116;2023-01-26T03:29:54;0.50;99.90
770;DHT22;368;48.698;9.116;2023-01-26T03:32:23;0.40;99.90
770;DHT22;368;48.698;9.116;2023-01-26T03:34:50;0.40;99.90
770;DHT22;368;48.698;9.116;2023-01-26T03:37:17;0.60;99.90
770;DHT22;368;48.698;9.116;2023-01-26T03:39:47;0.80;99.90
770;DHT22;368;48.698;9.116;2023-01-26T03:42:31;0.70;99.90
770;DHT22;368;48.698;9.116;2023-01-26T03:45:15;0.90;99.90
770;DHT22;368;48.698;9.116;2023-01-26T03:48:10;0.80;99.90
770;DHT22;368;48.698;9.116;2023-01-26T03:50:55;0.70;99.90
770;DHT22;368;48.698;9.116;2023-01-26T03:53:39;0.70;99.90
770;DHT22;368;48.698;9.116;2023-01-26T03:56:24;0.70;99.90
770;DHT22;368;48.698;9.116;2023-01-26T03:58:58;0.80;99.90
770;DHT22;368;48.698;9.116;2023-01-26T04:01:33;0.60;99.90
770;DHT22;368;48.698;9.116;2023-01-26T04:04:02;0.60;99.90
770;DHT22;368;48.698;9.116;2023-01-26T04:06:47;0.50;99.90
770;DHT22;368;48.698;9.116;2023-01-26T04:09:32;0.80;99.90
770;DHT22;368;48.698;9.116;2023-01-26T04:11:59;0.60;99.90
770;DHT22;368;48.698;9.116;2023-01-26T04:14:26;0.40;99.90
770;DHT22;368;48.698;9.116;2023-01-26T04:17:11;0.40;99.90
770;DHT22;368;48.698;9.116;2023-01-26T04:19:56;0.40;99.90
770;DHT22;368;48.698;9.116;2023-01-26T04:22:41;0.80;99.90
770;DHT22;368;48.698;9.116;2023-01-26T04:25:11;0.80;99.90
770;DHT22;368;48.698;9.116;2023-01-26T04:27:38;0.50;99.90
770;DHT22;368;48.698;9.116;2023-01-26T04:30:06;0.30;99.90
770;DHT22;368;48.698;9.116;2023-01-26T04:32:33;0.50;99.90
770;DHT22;368;48.698;9.116;2023-01-26T04:35:01;0.40;99.90
770;DHT22;368;48.698;9.116;2023-01-26T04:37:29;0.60;99.90
770;DHT22;368;48.698;9.116;2023-01-26T04:39:55;0.50;99.90
770;DHT22;368;48.698;9.116;2023-01-26T04:42:22;0.90;99.90
770;DHT22;368;48.698;9.116;2023-01-26T04:44:50;0.70;99.90
770;DHT22;368;48.698;9.116;2023-01-26T04:47:17;0.70;99.90
770;DHT22;368;48.698;9.116;2023-01-26T04:49:44;1.00;99.90
770;DHT22;368;48.698;9.116;2023-01-26T04:52:12;0.80;99.90
770;DHT22;368;48.698;9.116;2023-01-26T04:54:39;0.40;99.90
770;DHT22;368;48.698;9.116;2023-01-26T04:57:07;0.50;99.90
770;DHT22;368;48.698;9.116;2023-01-26T04:59:34;0.60;99.90
770;DHT22;368;48.698;9.116;2023-01-26T05:02:01;0.50;99.90
770;DHT22;368;48.698;9.116;2023-01-26T05:04:27;0.80;99.90
770;DHT22;368;48.698;9.116;2023-01-26T05:06:54;0.50;99.90
770;DHT22;368;48.698;9.116;2023-01-26T05:09:22;0.60;99.90
770;DHT22;368;48.698;9.116;2023-01-26T05:11:49;0.50;99.90
770;DHT22;368;48.698;9.116;2023-01-26T05:14:16;0.60;99.90
770;DHT22;368;48.698;9.116;2023-01-26T05:16:42;0.30;99.90
770;DHT22;368;48.698;9.116;2023-01-26T05:19:09;0.50;99.90
770;DHT22;368;48.698;9.116;2023-01-26T05:21:36;0.40;99.90
770;DHT22;368;48.698;9.116;2023-01-26T05:24:03;0.40;99.90
770;DHT22;368;48.698;9.116;2023-01-26T05:26:31;0.20;99.90
770;DHT22;368;48.698;9.116;2023-01-26T05:28:58;0.40;99.90
770;DHT22;368;48.698;9.116;2023-01-26T05:31:25;0.60;99.90
770;DHT22;368;48.698;9.116;2023-01-26T05:33:51;0.40;99.90
770;DHT22;368;48.698;9.116;2023-01-26T05:36:18;0.50;99.90
770;DHT22;368;48.698;9.116;2023-01-26T05:38:45;0.40;99.90
770;DHT22;368;48.698;9.116;2023-01-26T05:41:13;0.50;99.90
770;DHT22;368;48.698;9.116;2023-01-26T05:43:41;0.60;99.90
770;DHT22;368;48.698;9.116;2023-01-26T05:46:08;0.60;99.90
770;DHT22;368;48.698;9.116;2023-01-26T05:48:35;0.20;99.90
770;DHT22;368;48.698;9.116;2023-01-26T05:51:02;0.40;99.90
770;DHT22;368;48.698;9.116;2023-01-26T05:53:28;0.50;99.90
770;DHT22;368;48.698;9.116;2023-01-26T05:55:55;0.60;99.90
770;DHT22;368;48.698;9.116;2023-01-26T05:58:22;0.50;99.90
770;DHT22;368;48.698;9.116;2023-01-26T06:00:50;0.20;99.90
770;DHT22;368;48.698;9.116;2023-01-26T06:03:17;0.20;99.90
770;DHT22;368;48.698;9.116;2023-01-26T06:05:43;-0.10;99.90
770;DHT22;368;48.698;9.116;2023-01-26T06:08:17;0.00;99.90
770;DHT22;368;48.698;9.116;2023-01-26T06:10:44;0.00;99.90
770;DHT22;368;48.698;9.116;2023-01-26T06:13:10;0.00;99.90
770;DHT22;368;48.698;9.116;2023-01-26T06:15:37;-0.10;99.90
770;DHT22;368;48.698;9.116;2023-01-26T06:18:05;-0.30;99.90
770;DHT22;368;48.698;9.116;2023-01-26T06:20:32;-0.10;99.90
770;DHT22;368;48.698;9.116;2023-01-26T06:22:59;0.20;99.90
770;DHT22;368;48.698;9.116;2023-01-26T06:25:26;0.00;99.90
770;DHT22;368;48.698;9.116;2023-01-26T06:27:56;0.20;99.90
770;DHT22;368;48.698;9.116;2023-01-26T06:30:22;-0.20;99.90
770;DHT22;368;48.698;9.116;2023-01-26T06:32:49;-0.10;99.90
770;DHT22;368;48.698;9.116;2023-01-26T06:35:17;-0.20;99.90
770;DHT22;368;48.698;9.116;2023-01-26T06:37:47;0.00;99.90
770;DHT22;368;48.698;9.116;2023-01-26T06:40:13;0.00;99.90
770;DHT22;368;48.698;9.116;2023-01-26T06:42:46;0.00;99.90
770;DHT22;368;48.698;9.116;2023-01-26T06:45:12;-0.20;99.90
770;DHT22;368;48.698;9.116;2023-01-26T06:47:43;-0.20;99.90
770;DHT22;368;48.698;9.116;2023-01-26T06:50:10;-0.20;99.90
770;DHT22;368;48.698;9.116;2023-01-26T06:52:41;-0.20;99.90
770;DHT22;368;48.698;9.116;2023-01-26T06:55:15;-0.20;99.90
770;DHT22;368;48.698;9.116;2023-01-26T06:57:44;-0.20;99.90
770;DHT22;368;48.698;9.116;2023-01-26T07:00:11;-0.10;99.90
770;DHT22;368;48.698;9.116;2023-01-26T07:02:39;-0.10;99.90
770;DHT22;368;48.698;9.116;2023-01-26T07:05:06;-0.10;99.90
770;DHT22;368;48.698;9.116;2023-01-26T07:07:33;-0.20;99.90
770;DHT22;368;48.698;9.116;2023-01-26T07:10:02;-0.10;99.90
770;DHT22;368;48.698;9.116;2023-01-26T07:12:37;-0.20;99.90
770;DHT22;368;48.698;9.116;2023-01-26T07:15:05;-0.20;99.90
770;DHT22;368;48.698;9.116;2023-01-26T07:17:32;-0.20;99.90
770;DHT22;368;48.698;9.116;2023-01-26T07:19:59;-0.20;99.90
770;DHT22;368;48.698;9.116;2023-01-26T07:22:25;-0.20;99.90
770;DHT22;368;48.698;9.116;2023-01-26T07:24:52;-0.40;99.90
770;DHT22;368;48.698;9.116;2023-01-26T07:27:20;-0.40;99.90
770;DHT22;368;48.698;9.116;2023-01-26T07:29:47;-0.50;99.90
770;DHT22;368;48.698;9.116;2023-01-26T07:32:14;-0.50;99.90
770;DHT22;368;48.698;9.116;2023-01-26T07:34:41;-0.20;99.90
770;DHT22;368;48.698;9.116;2023-01-26T07:37:08;-0.20;99.90
770;DHT22;368;48.698;9.116;2023-01-26T07:39:35;-0.20;99.90
770;DHT22;368;48.698;9.116;2023-01-26T07:42:01;-0.40;99.90
770;DHT22;368;48.698;9.116;2023-01-26T07:44:30;-0.40;99.90
770;DHT22;368;48.698;9.116;2023-01-26T07:46:56;-0.40;99.90
770;DHT22;368;48.698;9.116;2023-01-26T07:49:23;-0.40;99.90
770;DHT22;368;48.698;9.116;2023-01-26T07:51:50;-0.20;99.90
770;DHT22;368;48.698;9.116;2023-01-26T07:54:18;-0.20;99.90
770;DHT22;368;48.698;9.116;2023-01-26T07:56:50;-0.20;99.90
770;DHT22;368;48.698;9.116;2023-01-26T07:59:17;-0.40;99.90
770;DHT22;368;48.698;9.116;2023-01-26T08:01:47;-0.40;99.90
770;DHT22;368;48.698;9.116;2023-01-26T08:04:14;-0.30;99.90
770;DHT22;368;48.698;9.116;2023-01-26T08:06:41;-0.30;99.90
770;DHT22;368;48.698;9.116;2023-01-26T08:09:08;-0.10;99.90
770;DHT22;368;48.698;9.116;2023-01-26T08:11:35;-0.40;99.90
770;DHT22;368;48.698;9.116;2023-01-26T08:14:02;-0.40;99.90
770;DHT22;368;48.698;9.116;2023-01-26T08:16:29;-0.20;99.90
770;DHT22;368;48.698;9.116;2023-01-26T08:18:57;-0.40;99.90
770;DHT22;368;48.698;9.116;2023-01-26T08:21:25;-0.20;99.90
770;DHT22;368;48.698;9.116;2023-01-26T08:23:51;-0.10;99.90
770;DHT22;368;48.698;9.116;2023-01-26T08:26:18;0.00;99.90
770;DHT22;368;48.698;9.116;2023-01-26T08:28:45;-0.20;99.90
770;DHT22;368;48.698;9.116;2023-01-26T08:31:14;-0.10;99.90
770;DHT22;368;48.698;9.116;2023-01-26T08:33:44;-0.30;99.90
770;DHT22;368;48.698;9.116;2023-01-26T08:36:14;0.00;99.90
770;DHT22;368;48.698;9.116;2023-01-26T08:38:41;0.10;99.90
770;DHT22;368;48.698;9.116;2023-01-26T08:41:08;0.10;99.90
770;DHT22;368;48.698;9.116;2023-01-26T08:43:35;-0.20;99.90
770;DHT22;368;48.698;9.116;2023-01-26T08:46:02;-0.10;99.90
770;DHT22;368;48.698;9.116;2023-01-26T08:48:29;-0.20;99.90
770;DHT22;368;48.698;9.116;2023-01-26T08:50:58;-0.20;99.90
770;DHT22;368;48.698;9.116;2023-01-26T08:53:29;-0.30;99.90
770;DHT22;368;48.698;9.116;2023-01-26T08:55:59;-0.20;99.90
770;DHT22;368;48.698;9.116;2023-01-26T08:58:26;-0.20;99.90
770;DHT22;368;48.698;9.116;2023-01-26T09:00:53;-0.20;99.90
770;DHT22;368;48.698;9.116;2023-01-26T09:03:20;0.10;99.90
770;DHT22;368;48.698;9.116;2023-01-26T09:05:46;0.00;99.90
770;DHT22;368;48.698;9.116;2023-01-26T09:08:13;-0.20;99.90
770;DHT22;368;48.698;9.116;2023-01-26T09:10:41;-0.20;99.90
770;DHT22;368;48.698;9.116;2023-01-26T09:13:09;-0.20;99.90
770;DHT22;368;48.698;9.116;2023-01-26T09:15:37;-0.10;99.90
770;DHT22;368;48.698;9.116;2023-01-26T09:18:04;0.00;99.90
770;DHT22;368;48.698;9.116;2023-01-26T09:20:31;-0.10;99.90
770;DHT22;368;48.698;9.116;2023-01-26T09:22:57;-0.30;99.90
770;DHT22;368;48.698;9.116;2023-01-26T09:25:24;0.00;99.90
770;DHT22;368;48.698;9.116;2023-01-26T09:27:52;0.00;99.90
770;DHT22;368;48.698;9.116;2023-01-26T09:30:19;0.20;99.90
770;DHT22;368;48.698;9.116;2023-01-26T09:32:46;0.20;99.90
770;DHT22;368;48.698;9.116;2023-01-26T09:35:13;0.40;99.90
770;DHT22;368;48.698;9.116;2023-01-26T09:37:41;0.60;99.90
770;DHT22;368;48.698;9.116;2023-01-26T09:40:15;0.40;99.90
770;DHT22;368;48.698;9.116;2023-01-26T09:43:07;0.20;99.90
770;DHT22;368;48.698;9.116;2023-01-26T09:45:42;0.10;99.90
770;DHT22;368;48.698;9.116;2023-01-26T09:48:20;0.00;99.90
770;DHT22;368;48.698;9.116;2023-01-26T09:50:53;0.10;99.90
770;DHT22;368;48.698;9.116;2023-01-26T09:53:25;0.20;99.90
770;DHT22;368;48.698;9.116;2023-01-26T09:55:54;-0.20;99.90
770;DHT22;368;48.698;9.116;2023-01-26T09:58:30;0.00;99.90
770;DHT22;368;48.698;9.116;2023-01-26T10:01:00;-0.20;99.90
770;DHT22;368;48.698;9.116;2023-01-26T10:03:31;0.00;99.90
770;DHT22;368;48.698;9.116;2023-01-26T10:06:05;0.00;99.90
770;DHT22;368;48.698;9.116;2023-01-26T10:08:34;-0.10;99.90
770;DHT22;368;48.698;9.116;2023-01-26T10:11:04;-0.10;99.90
770;DHT22;368;48.698;9.116;2023-01-26T10:13:34;0.20;99.90
770;DHT22;368;48.698;9.116;2023-01-26T10:16:05;-0.20;99.90
770;DHT22;368;48.698;9.116;2023-01-26T10:18:36;-0.20;99.90
770;DHT22;368;48.698;9.116;2023-01-26T10:21:06;0.10;99.90
770;DHT22;368;48.698;9.116;2023-01-26T10:23:35;-0.20;99.90
770;DHT22;368;48.698;9.116;2023-01-26T10:26:12;-0.40;99.90
770;DHT22;368;48.698;9.116;2023-01-26T10:28:42;-0.40;99.90
770;DHT22;368;48.698;9.116;2023-01-26T10:31:14;-0.30;99.90
770;DHT22;368;48.698;9.116;2023-01-26T10:33:49;-0.70;99.90
770;DHT22;368;48.698;9.116;2023-01-26T10:36:16;-0.20;99.90
770;DHT22;368;48.698;9.116;2023-01-26T10:38:44;-0.60;99.90
770;DHT22;368;48.698;9.116;2023-01-26T10:41:25;-0.50;99.90
770;DHT22;368;48.698;9.116;2023-01-26T10:43:55;-0.20;99.90
770;DHT22;368;48.698;9.116;2023-01-26T10:46:28;-0.10;99.90
770;DHT22;368;48.698;9.116;2023-01-26T10:48:56;-0.20;99.90
770;DHT22;368;48.698;9.116;2023-01-26T10:51:26;-0.10;99.90
770;DHT22;368;48.698;9.116;2023-01-26T10:54:22;-0.30;99.90
770;DHT22;368;48.698;9.116;2023-01-26T10:56:51;-0.10;99.90
770;DHT22;368;48.698;9.116;2023-01-26T10:59:29;-0.20;99.90
770;DHT22;368;48.698;9.116;2023-01-26T11:01:58;-0.20;99.90
770;DHT22;368;48.698;9.116;2023-01-26T11:04:26;-0.10;99.90
770;DHT22;368;48.698;9.116;2023-01-26T11:06:53;-0.40;99.90
770;DHT22;368;48.698;9.116;2023-01-26T11:09:23;-0.40;99.90
770;DHT22;368;48.698;9.116;2023-01-26T11:11:58;-0.20;99.90
770;DHT22;368;48.698;9.116;2023-01-26T11:14:28;-0.20;99.90
770;DHT22;368;48.698;9.116;2023-01-26T11:17:03;-0.30;99.90
770;DHT22;368;48.698;9.116;2023-01-26T11:20:01;-0.40;99.90
770;DHT22;368;48.698;9.116;2023-01-26T11:22:38;-0.60;99.90
770;DHT22;368;48.698;9.116;2023-01-26T11:25:13;-0.70;99.90
770;DHT22;368;48.698;9.116;2023-01-26T11:27:45;-0.30;99.90
770;DHT22;368;48.698;9.116;2023-01-26T11:30:43;-0.30;99.90
770;DHT22;368;48.698;9.116;2023-01-26T11:33:19;-0.40;99.90
770;DHT22;368;48.698;9.116;2023-01-26T11:35:53;-0.40;99.90
770;DHT22;368;48.698;9.116;2023-01-26T11:38:39;-0.40;99.90
770;DHT22;368;48.698;9.116;2023-01-26T11:41:24;-0.30;99.90
770;DHT22;368;48.698;9.116;2023-01-26T11:50:06;-0.30;99.90
770;DHT22;368;48.698;9.116;2023-01-26T11:52:48;-0.20;99.90
770;DHT22;368;48.698;9.116;2023-01-26T11:55:24;-0.40;99.90
770;DHT22;368;48.698;9.116;2023-01-26T11:58:02;-0.50;99.90
770;DHT22;368;48.698;9.116;2023-01-26T12:00:39;-0.30;99.90
770;DHT22;368;48.698;9.116;2023-01-26T12:03:17;-0.20;99.90
770;DHT22;368;48.698;9.116;2023-01-26T12:05:47;-0.20;99.90
770;DHT22;368;48.698;9.116;2023-01-26T12:08:20;-0.30;99.90
770;DHT22;368;48.698;9.116;2023-01-26T12:10:50;-0.50;99.90
770;DHT22;368;48.698;9.116;2023-01-26T12:13:29;-0.30;99.90
770;DHT22;368;48.698;9.116;2023-01-26T12:16:04;-0.50;99.90
770;DHT22;368;48.698;9.116;2023-01-26T12:18:36;-0.40;99.90
770;DHT22;368;48.698;9.116;2023-01-26T12:21:09;-0.20;99.90
770;DHT22;368;48.698;9.116;2023-01-26T12:23:43;-0.40;99.90
770;DHT22;368;48.698;9.116;2023-01-26T12:26:14;-0.40;99.90
770;DHT22;368;48.698;9.116;2023-01-26T12:28:47;-0.40;99.90
770;DHT22;368;48.698;9.116;2023-01-26T12:31:19;-0.50;99.90
770;DHT22;368;48.698;9.116;2023-01-26T12:33:51;-0.40;99.90
770;DHT22;368;48.698;9.116;2023-01-26T12:36:39;-0.50;99.90
770;DHT22;368;48.698;9.116;2023-01-26T12:39:12;-0.30;99.90
770;DHT22;368;48.698;9.116;2023-01-26T12:41:58;-0.50;99.90
770;DHT22;368;48.698;9.116;2023-01-26T12:44:34;-0.50;99.90
770;DHT22;368;48.698;9.116;2023-01-26T12:47:07;-0.40;99.90
770;DHT22;368;48.698;9.116;2023-01-26T12:49:39;-0.30;99.90
770;DHT22;368;48.698;9.116;2023-01-26T12:52:12;-0.20;99.90
770;DHT22;368;48.698;9.116;2023-01-26T12:54:45;-0.40;99.90
770;DHT22;368;48.698;9.116;2023-01-26T12:57:17;-0.60;99.90
770;DHT22;368;48.698;9.116;2023-01-26T12:59:46;-0.60;99.90
770;DHT22;368;48.698;9.116;2023-01-26T13:02:25;-0.40;99.90
770;DHT22;368;48.698;9.116;2023-01-26T13:04:56;-0.40;99.90
770;DHT22;368;48.698;9.116;2023-01-26T13:07:29;-0.50;99.90
770;DHT22;368;48.698;9.116;2023-01-26T13:10:24;-0.70;99.90
770;DHT22;368;48.698;9.116;2023-01-26T13:12:53;-0.60;99.90
770;DHT22;368;48.698;9.116;2023-01-26T13:15:21;-0.50;99.90
770;DHT22;368;48.698;9.116;2023-01-26T13:17:57;-0.40;99.90
770;DHT22;368;48.698;9.116;2023-01-26T13:20:49;-0.40;99.90
770;DHT22;368;48.698;9.116;2023-01-26T13:23:49;-0.60;99.90
770;DHT22;368;48.698;9.116;2023-01-26T13:26:43;-0.50;99.90
770;DHT22;368;48.698;9.116;2023-01-26T13:29:33;-0.60;99.90
770;DHT22;368;48.698;9.116;2023-01-26T13:34:50;-0.50;99.90
770;DHT22;368;48.698;9.116;2023-01-26T13:37:25;-0.40;99.90
770;DHT22;368;48.698;9.116;2023-01-26T13:39:55;-0.30;99.90
770;DHT22;368;48.698;9.116;2023-01-26T13:42:26;-0.50;99.90
770;DHT22;368;48.698;9.116;2023-01-26T13:44:57;-0.60;99.90
770;DHT22;368;48.698;9.116;2023-01-26T13:47:31;-0.30;99.90
770;DHT22;368;48.698;9.116;2023-01-26T13:49:59;-0.20;99.90
770;DHT22;368;48.698;9.116;2023-01-26T13:52:27;-0.30;99.90
770;DHT22;368;48.698;9.116;2023-01-26T13:54:55;-0.30;99.90
770;DHT22;368;48.698;9.116;2023-01-26T13:57:24;-0.30;99.90
770;DHT22;368;48.698;9.116;2023-01-26T13:59:53;-0.30;99.90
770;DHT22;368;48.698;9.116;2023-01-26T14:02:23;-0.30;99.90
770;DHT22;368;48.698;9.116;2023-01-26T14:04:50;-0.30;99.90
770;DHT22;368;48.698;9.116;2023-01-26T14:07:22;-0.50;99.90
770;DHT22;368;48.698;9.116;2023-01-26T14:09:53;-0.70;99.90
770;DHT22;368;48.698;9.116;2023-01-26T14:12:22;-0.50;99.90
770;DHT22;368;48.698;9.116;2023-01-26T14:14:51;-0.50;99.90
770;DHT22;368;48.698;9.116;2023-01-26T14:17:28;-0.50;99.90
770;DHT22;368;48.698;9.116;2023-01-26T14:19:56;-0.40;99.90
770;DHT22;368;48.698;9.116;2023-01-26T14:22:24;-0.50;99.90
770;DHT22;368;48.698;9.116;2023-01-26T14:24:53;-0.40;99.90
770;DHT22;368;48.698;9.116;2023-01-26T14:27:30;-0.60;99.90
770;DHT22;368;48.698;9.116;2023-01-26T14:29:58;-0.50;99.90
770;DHT22;368;48.698;9.116;2023-01-26T14:32:25;-0.40;99.90
770;DHT22;368;48.698;9.116;2023-01-26T14:34:55;-0.20;99.90
770;DHT22;368;48.698;9.116;2023-01-26T14:37:22;-0.40;99.90
770;DHT22;368;48.698;9.116;2023-01-26T14:42:32;-0.40;99.90
770;DHT22;368;48.698;9.116;2023-01-26T14:45:00;-0.50;99.90
770;DHT22;368;48.698;9.116;2023-01-26T14:47:28;-0.30;99.90
770;DHT22;368;48.698;9.116;2023-01-26T14:50:00;-0.60;99.90
770;DHT22;368;48.698;9.116;2023-01-26T14:52:29;-0.50;99.90
770;DHT22;368;48.698;9.116;2023-01-26T14:55:03;-0.40;99.90
770;DHT22;368;48.698;9.116;2023-01-26T14:57:32;-0.40;99.90
770;DHT22;368;48.698;9.116;2023-01-26T15:00:00;-0.40;99.90
770;DHT22;368;48.698;9.116;2023-01-26T15:02:35;-0.40;99.90
770;DHT22;368;48.698;9.116;2023-01-26T15:05:09;-0.40;99.90
770;DHT22;368;48.698;9.116;2023-01-26T15:07:37;-0.60;99.90
770;DHT22;368;48.698;9.116;2023-01-26T15:10:31;-0.40;99.90
770;DHT22;368;48.698;9.116;2023-01-26T15:13:04;-0.60;99.90
770;DHT22;368;48.698;9.116;2023-01-26T15:15:33;-0.40;99.90
770;DHT22;368;48.698;9.116;2023-01-26T15:18:16;-0.20;99.90
770;DHT22;368;48.698;9.116;2023-01-26T15:20:50;-0.40;99.90
770;DHT22;368;48.698;9.116;2023-01-26T15:23:27;-0.40;99.90
770;DHT22;368;48.698;9.116;2023-01-26T15:25:54;-0.40;99.90
770;DHT22;368;48.698;9.116;2023-01-26T15:28:24;-0.40;99.90
770;DHT22;368;48.698;9.116;2023-01-26T15:30:54;-0.50;99.90
770;DHT22;368;48.698;9.116;2023-01-26T15:36:33;-0.90;99.90
770;DHT22;368;48.698;9.116;2023-01-26T15:39:08;-0.80;99.90
770;DHT22;368;48.698;9.116;2023-01-26T15:41:36;-1.00;99.90
770;DHT22;368;48.698;9.116;2023-01-26T15:44:04;-0.60;99.90
770;DHT22;368;48.698;9.116;2023-01-26T15:46:31;-0.70;99.90
770;DHT22;368;48.698;9.116;2023-01-26T15:48:58;-0.50;99.90
770;DHT22;368;48.698;9.116;2023-01-26T15:51:24;-0.80;99.90
770;DHT22;368;48.698;9.116;2023-01-26T15:53:51;-0.50;99.90
770;DHT22;368;48.698;9.116;2023-01-26T15:56:18;-0.70;99.90
770;DHT22;368;48.698;9.116;2023-01-26T15:58:45;-0.40;99.90
770;DHT22;368;48.698;9.116;2023-01-26T16:01:19;-0.30;99.90
770;DHT22;368;48.698;9.116;2023-01-26T16:03:46;-0.50;99.90
770;DHT22;368;48.698;9.116;2023-01-26T16:06:20;-0.30;99.90
770;DHT22;368;48.698;9.116;2023-01-26T16:08:47;-0.50;99.90
770;DHT22;368;48.698;9.116;2023-01-26T16:11:14;-0.40;99.90
770;DHT22;368;48.698;9.116;2023-01-26T16:13:40;-0.40;99.90
770;DHT22;368;48.698;9.116;2023-01-26T16:16:11;-0.40;99.90
770;DHT22;368;48.698;9.116;2023-01-26T16:18:39;-0.60;99.90
770;DHT22;368;48.698;9.116;2023-01-26T16:21:18;-0.60;99.90
770;DHT22;368;48.698;9.116;2023-01-26T16:23:46;-0.50;99.90
770;DHT22;368;48.698;9.116;2023-01-26T16:26:15;-0.70;99.90
770;DHT22;368;48.698;9.116;2023-01-26T16:28:43;-0.60;99.90
770;DHT22;368;48.698;9.116;2023-01-26T16:31:15;-0.50;99.90
770;DHT22;368;48.698;9.116;2023-01-26T16:33:43;-0.20;99.90
770;DHT22;368;48.698;9.116;2023-01-26T16:36:12;-0.40;99.90
770;DHT22;368;48.698;9.116;2023-01-26T16:38:39;-0.60;99.90
770;DHT22;368;48.698;9.116;2023-01-26T16:41:12;-0.30;99.90
770;DHT22;368;48.698;9.116;2023-01-26T16:43:41;-0.30;99.90
770;DHT22;368;48.698;9.116;2023-01-26T16:46:08;-0.40;99.90
770;DHT22;368;48.698;9.116;2023-01-26T16:48:36;-0.50;99.90
770;DHT22;368;48.698;9.116;2023-01-26T16:51:15;-0.40;99.90
770;DHT22;368;48.698;9.116;2023-01-26T16:53:43;-0.40;99.90
770;DHT22;368;48.698;9.116;2023-01-26T16:56:11;-0.40;99.90
770;DHT22;368;48.698;9.116;2023-01-26T16:58:39;-0.40;99.90
770;DHT22;368;48.698;9.116;2023-01-26T17:01:08;-0.30;99.90
770;DHT22;368;48.698;9.116;2023-01-26T17:03:38;-0.50;99.90
770;DHT22;368;48.698;9.116;2023-01-26T17:06:05;-0.40;99.90
770;DHT22;368;48.698;9.116;2023-01-26T17:08:33;-0.40;99.90
770;DHT22;368;48.698;9.116;2023-01-26T17:11:00;-0.30;99.90
770;DHT22;368;48.698;9.116;2023-01-26T17:13:27;-0.10;99.90
770;DHT22;368;48.698;9.116;2023-01-26T17:15:55;-0.40;99.90
770;DHT22;368;48.698;9.116;2023-01-26T17:18:22;-0.30;99.90
770;DHT22;368;48.698;9.116;2023-01-26T17:20:49;-0.20;99.90